Time;durP1;ratioP1;P1;durP2;ratioP2;P2;SDS_P1;SDS_P2;PMS_P1;PMS_P2;Temp;Humidity;BMP_temperature;BMP_pressure;BME280_temperature;BME280_humidity;BME280_pressure;Samples;Min_cycle;Max_cycle;Signal;HPM_P1;HPM_P2
2022/03/18 00:00:25;;;;;;;14.57;7.53;;;;;;;0.68;100.00;102356.22;5064736;28;20195;-72
2022/03/18 00:02:54;;;;;;;15.90;8.73;;;;;;;0.68;100.00;102360.44;5074166;28;20665;-72
2022/03/18 00:05:21;;;;;;;20.50;8.57;;;;;;;0.61;100.00;102355.53;5064328;28;20195;-72
2022/03/18 00:07:50;;;;;;;13.43;8.10;;;;;;;0.69;100.00;102362.22;5055193;28;20201;-75
2022/03/18 00:10:19;;;;;;;16.17;7.80;;;;;;;0.73;100.00;102361.75;5055454;28;20281;-72
2022/03/18 00:12:47;;;;;;;24.37;8.73;;;;;;;0.75;100.00;102356.00;5073658;28;20579;-72
2022/03/18 00:15:15;;;;;;;13.80;8.67;;;;;;;0.72;100.00;102353.19;5072044;28;20193;-72
2022/03/18 00:17:43;;;;;;;16.20;8.97;;;;;;;0.78;100.00;102357.97;5073412;28;20222;-72
2022/03/18 00:20:11;;;;;;;18.27;8.97;;;;;;;0.70;100.00;102351.25;5065449;28;20196;-72
2022/03/18 00:22:40;;;;;;;14.27;8.07;;;;;;;0.67;100.00;102358.63;5054624;28;20192;-72
2022/03/18 00:25:08;;;;;;;12.17;7.23;;;;;;;0.62;100.00;102359.88;5054013;28;20192;-72
2022/03/18 00:27:37;;;;;;;14.37;8.37;;;;;;;0.65;100.00;102363.59;5053926;28;20203;-72
2022/03/18 00:30:05;;;;;;;15.53;7.30;;;;;;;0.66;100.00;102361.94;5065477;28;20187;-72
2022/03/18 00:32:32;;;;;;;14.13;7.67;;;;;;;0.53;100.00;102353.94;5053752;28;20595;-72
2022/03/18 00:34:59;;;;;;;12.00;7.10;;;;;;;0.57;100.00;102371.34;5065552;28;20198;-72
2022/03/18 00:37:26;;;;;;;11.90;7.77;;;;;;;0.41;100.00;102374.13;5069769;28;20222;-72
2022/03/18 00:39:53;;;;;;;12.83;7.87;;;;;;;0.18;100.00;102374.53;5054419;28;20199;-73
2022/03/18 00:42:20;;;;;;;12.73;7.73;;;;;;;0.17;100.00;102367.66;5053694;28;20195;-73
2022/03/18 00:44:48;;;;;;;14.73;6.77;;;;;;;0.06;100.00;102363.22;5067432;28;20649;-72
2022/03/18 00:52:44;;;;;;;12.70;7.60;;;;;;;-0.21;100.00;102363.16;5062563;28;20190;-72
2022/03/18 00:55:11;;;;;;;17.83;8.77;;;;;;;-0.34;100.00;102342.38;5073419;28;20190;-72
2022/03/18 00:57:38;;;;;;;16.70;9.77;;;;;;;-0.41;100.00;102345.13;5071906;28;20245;-72
2022/03/18 01:00:08;;;;;;;23.00;9.73;;;;;;;-0.18;100.00;102348.19;5066319;28;20555;-72
2022/03/18 01:02:35;;;;;;;16.90;9.50;;;;;;;-0.31;100.00;102358.88;5053656;28;20215;-72
2022/03/18 01:05:02;;;;;;;22.10;9.77;;;;;;;-0.40;100.00;102329.06;5053319;28;20191;-72
2022/03/18 01:07:30;;;;;;;20.37;9.33;;;;;;;-0.15;100.00;102363.78;5053211;28;20590;-72
2022/03/18 01:09:57;;;;;;;12.07;8.57;;;;;;;-0.18;100.00;102360.94;5058695;28;20214;-72
2022/03/18 01:12:25;;;;;;;34.23;15.10;;;;;;;-0.31;100.00;102337.56;5060352;28;20572;-72
2022/03/18 01:14:52;;;;;;;39.70;18.83;;;;;;;-0.09;100.00;102371.97;5053024;28;20198;-72
2022/03/18 01:17:20;;;;;;;30.63;15.90;;;;;;;-0.01;100.00;102365.97;5052133;28;20223;-72
2022/03/18 01:19:47;;;;;;;30.57;16.47;;;;;;;-0.14;100.00;102371.53;5057110;28;20191;-72
2022/03/18 01:22:14;;;;;;;27.73;12.73;;;;;;;-0.26;100.00;102367.88;5063478;28;20187;-71
2022/03/18 01:24:41;;;;;;;29.20;13.53;;;;;;;-0.25;100.00;102378.97;5053269;28;20207;-72
2022/03/18 01:27:08;;;;;;;29.27;12.73;;;;;;;-0.30;100.00;102369.97;5053394;28;20194;-72
2022/03/18 01:29:35;;;;;;;18.60;10.73;;;;;;;-0.45;100.00;102343.03;5068452;28;20206;-72
2022/03/18 01:32:02;;;;;;;22.67;9.90;;;;;;;-0.47;100.00;102344.53;5064548;28;20194;-71
2022/03/18 01:34:30;;;;;;;17.43;10.20;;;;;;;-0.50;100.00;102345.16;5052650;28;20191;-71
2022/03/18 01:36:57;;;;;;;33.13;14.13;;;;;;;-0.31;100.00;102380.91;5053727;28;20230;-72
2022/03/18 01:39:24;;;;;;;16.30;7.57;;;;;;;-0.40;100.00;102382.59;5052846;28;20199;-72
2022/03/18 01:41:51;;;;;;;14.33;8.73;;;;;;;-0.51;100.00;102379.94;5072556;28;20610;-72
2022/03/18 01:44:19;;;;;;;23.93;11.33;;;;;;;-0.47;100.00;102385.31;5058357;28;20191;-72
2022/03/18 01:46:46;;;;;;;20.90;11.63;;;;;;;-0.48;100.00;102392.06;5060156;28;20616;-72
2022/03/18 01:49:14;;;;;;;19.27;10.27;;;;;;;-0.51;100.00;102392.66;5070485;28;20673;-72
2022/03/18 01:51:43;;;;;;;19.00;11.67;;;;;;;-0.56;100.00;102398.97;5060251;28;20205;-72
2022/03/18 01:56:56;;;;;;;23.53;8.90;;;;;;;-0.58;100.00;102397.94;5055061;28;20202;-72
2022/03/18 01:59:23;;;;;;;14.80;9.20;;;;;;;-0.69;100.00;102400.19;5035615;28;20241;-72
2022/03/18 02:01:50;;;;;;;20.03;9.33;;;;;;;-0.64;100.00;102411.69;5052419;28;20202;-72
2022/03/18 02:04:17;;;;;;;16.30;8.10;;;;;;;-0.56;100.00;102413.34;5052101;28;20262;-71
2022/03/18 02:06:47;;;;;;;11.67;7.57;;;;;;;-0.53;100.00;102406.91;5066117;28;20199;-71
2022/03/18 02:09:14;;;;;;;16.67;9.17;;;;;;;-0.79;100.00;102367.84;5052430;28;20199;-72
2022/03/18 02:11:41;;;;;;;15.87;8.80;;;;;;;-0.59;100.00;102413.06;5051903;28;20199;-72
2022/03/18 02:14:07;;;;;;;15.70;9.53;;;;;;;-0.68;100.00;102405.41;5052163;28;20199;-72
2022/03/18 02:16:38;;;;;;;323.77;88.23;;;;;;;-0.63;100.00;102416.97;5058323;28;20589;-72
2022/03/18 02:19:04;;;;;;;263.23;76.87;;;;;;;-0.77;100.00;102399.44;5051720;28;20223;-73
2022/03/18 02:21:33;;;;;;;128.27;41.77;;;;;;;-0.72;100.00;102413.53;5059031;28;20199;-72
2022/03/18 02:24:07;;;;;;;73.40;26.17;;;;;;;-0.70;100.00;102406.94;5051793;28;20258;-72
2022/03/18 02:26:35;;;;;;;49.63;19.53;;;;;;;-0.66;100.00;102403.03;5051943;28;20195;-72
2022/03/18 02:29:03;;;;;;;30.17;13.17;;;;;;;-0.65;100.00;102404.81;5051992;28;20290;-72
2022/03/18 02:31:31;;;;;;;17.30;9.87;;;;;;;-0.59;100.00;102416.50;5067314;28;20199;-72
2022/03/18 02:33:58;;;;;;;14.80;10.17;;;;;;;-0.69;100.00;102413.81;5071560;28;20298;-72
2022/03/18 02:36:25;;;;;;;15.70;7.93;;;;;;;-0.66;100.00;102429.41;5069864;28;20229;-72
2022/03/18 02:38:52;;;;;;;37.97;12.10;;;;;;;-0.68;100.00;102435.97;5057756;28;20673;-71
2022/03/18 02:41:20;;;;;;;24.33;11.93;;;;;;;-0.66;100.00;102434.50;5069236;28;20660;-72
2022/03/18 02:43:47;;;;;;;26.13;11.03;;;;;;;-0.75;100.00;102428.50;5054817;28;20195;-71
2022/03/18 02:46:14;;;;;;;25.80;11.60;;;;;;;-0.70;100.00;102436.59;5050607;28;20251;-72
2022/03/18 02:48:41;;;;;;;23.87;11.57;;;;;;;-0.72;100.00;102433.91;5055880;28;20200;-72
2022/03/18 02:51:08;;;;;;;19.83;10.63;;;;;;;-0.72;100.00;102439.00;5066942;28;20203;-72
2022/03/18 02:53:35;;;;;;;20.43;10.27;;;;;;;-0.64;100.00;102437.16;5071055;28;20195;-72
2022/03/18 02:56:04;;;;;;;21.50;11.00;;;;;;;-0.66;100.00;102444.69;5071518;28;20195;-72
2022/03/18 02:58:32;;;;;;;21.80;12.97;;;;;;;-0.63;100.00;102438.97;5070857;28;20333;-72
2022/03/18 03:00:58;;;;;;;19.27;11.60;;;;;;;-0.80;100.00;102439.91;5056376;28;20206;-72
2022/03/18 03:03:25;;;;;;;22.17;10.80;;;;;;;-0.84;100.00;102444.53;5051203;28;20199;-72
2022/03/18 03:08:36;;;;;;;20.60;11.53;;;;;;;-0.93;100.00;102439.47;5052915;28;20202;-72
2022/03/18 03:11:03;;;;;;;24.10;10.90;;;;;;;-0.87;100.00;102450.22;5069450;28;20203;-71
2022/03/18 03:13:32;;;;;;;19.57;9.47;;;;;;;-0.88;100.00;102455.16;5075398;28;20260;-71
2022/03/18 03:15:59;;;;;;;20.63;9.83;;;;;;;-0.89;100.00;102459.34;5074642;28;20226;-71
2022/03/18 03:18:28;;;;;;;17.43;10.27;;;;;;;-0.89;100.00;102454.25;5073806;28;20230;-72
2022/03/18 03:20:55;;;;;;;19.60;10.40;;;;;;;-0.97;100.00;102456.81;5061222;28;20257;-72
2022/03/18 03:23:23;;;;;;;19.17;9.87;;;;;;;-1.31;100.00;102410.22;5055424;28;20613;-72
2022/03/18 03:25:51;;;;;;;20.80;10.50;;;;;;;-1.05;100.00;102461.16;5063457;28;20274;-71
2022/03/18 03:28:18;;;;;;;19.63;10.90;;;;;;;-0.99;100.00;102461.75;5055158;28;20199;-71
2022/03/18 03:30:46;;;;;;;18.70;10.93;;;;;;;-0.81;100.00;102465.19;5059301;28;20203;-72
2022/03/18 03:33:13;;;;;;;17.87;8.27;;;;;;;-0.79;100.00;102468.81;5054971;28;20206;-72
2022/03/18 03:35:41;;;;;;;10.67;6.03;;;;;;;-1.42;100.00;102428.59;5055044;28;20213;-74
2022/03/18 03:38:09;;;;;;;4.13;3.07;;;;;;;-1.13;100.00;102501.13;5054990;28;20226;-71
2022/03/18 03:40:38;;;;;;;7.43;4.97;;;;;;;-1.21;100.00;102506.16;5056304;28;20188;-71
2022/03/18 03:43:05;;;;;;;10.90;7.07;;;;;;;-1.25;100.00;102504.97;5057338;28;20275;-71
2022/03/18 03:45:31;;;;;;;15.53;8.63;;;;;;;-1.17;100.00;102510.81;5058324;28;21070;-72
2022/03/18 03:48:00;;;;;;;14.23;6.97;;;;;;;-1.18;100.00;102512.47;5055127;28;20708;-71
2022/03/18 03:50:27;;;;;;;9.20;6.03;;;;;;;-1.29;100.00;102504.53;5056491;28;20184;-72
2022/03/18 03:52:54;;;;;;;23.00;7.87;;;;;;;-1.30;100.00;102508.72;5070258;28;20768;-72
2022/03/18 03:55:21;;;;;;;19.00;10.33;;;;;;;-1.30;100.00;102523.06;5074514;28;20248;-71
2022/03/18 03:57:48;;;;;;;63.03;23.33;;;;;;;-1.28;100.00;102521.56;5074300;28;20215;-73
2022/03/18 04:00:16;;;;;;;25.57;11.90;;;;;;;0.27;100.00;102505.53;5072542;28;20187;-71
2022/03/18 04:02:44;;;;;;;19.67;9.20;;;;;;;-0.45;100.00;102539.22;5070202;28;20199;-72
2022/03/18 04:05:13;;;;;;;19.47;9.83;;;;;;;-0.55;100.00;102533.25;5054352;28;20237;-73
2022/03/18 04:07:41;;;;;;;18.73;9.77;;;;;;;-0.74;100.00;102539.81;5054322;28;20199;-71
2022/03/18 04:10:52;;;;;;;21.17;10.47;;;;;;;-0.79;100.00;102538.47;5055435;28;20203;-71
2022/03/18 04:13:19;;;;;;;19.87;10.17;;;;;;;-0.06;100.00;102520.16;5073755;28;20252;-71
2022/03/18 04:15:47;;;;;;;25.10;11.20;;;;;;;-0.48;100.00;102526.19;5070972;28;20231;-71
2022/03/18 04:18:14;;;;;;;21.20;10.10;;;;;;;-0.67;100.00;102529.47;5056120;28;20215;-71
2022/03/18 04:20:42;;;;;;;20.50;10.37;;;;;;;-0.73;100.00;102546.72;5062511;28;20202;-71
2022/03/18 04:23:15;;;;;;;21.87;11.13;;;;;;;-0.85;100.00;102555.69;5056825;28;20485;-74
2022/03/18 04:25:41;;;;;;;20.67;10.13;;;;;;;-0.99;100.00;102558.50;5047476;28;20218;-71
2022/03/18 04:28:09;;;;;;;25.23;13.13;;;;;;;-1.07;100.00;102544.13;5071504;28;20202;-72
2022/03/18 04:30:36;;;;;;;38.87;15.57;;;;;;;-1.10;100.00;102554.88;5063690;28;20199;-72
2022/03/18 04:33:03;;;;;;;33.77;15.20;;;;;;;-1.12;100.00;102546.19;5061755;28;20654;-73
2022/03/18 04:35:31;;;;;;;42.30;17.07;;;;;;;-1.19;100.00;102545.41;5066392;28;20214;-72
2022/03/18 04:38:00;;;;;;;33.43;14.60;;;;;;;-1.11;100.00;102558.19;5070247;28;20219;-71
2022/03/18 04:40:27;;;;;;;25.37;11.30;;;;;;;-1.17;100.00;102552.44;5070133;28;20223;-72
2022/03/18 04:42:53;;;;;;;14.70;8.30;;;;;;;-1.17;100.00;102555.00;5055714;28;20195;-73
2022/03/18 04:45:21;;;;;;;13.80;8.57;;;;;;;-1.04;100.00;102564.78;5058022;28;20195;-74
2022/03/18 04:48:00;;;;;;;19.17;10.97;;;;;;;-1.08;100.00;102572.84;5063117;28;20195;-71
2022/03/18 04:50:42;;;;;;;17.63;9.30;;;;;;;-1.16;100.00;102544.09;5067350;28;20202;-71
2022/03/18 04:53:11;;;;;;;22.63;9.17;;;;;;;-1.05;100.00;102562.97;5070809;28;20211;-71
2022/03/18 04:55:37;;;;;;;18.13;8.67;;;;;;;-0.94;100.00;102581.88;5069998;28;20202;-72
2022/03/18 04:58:04;;;;;;;17.47;8.67;;;;;;;-0.90;100.00;102569.63;5043078;28;20215;-71
2022/03/18 05:00:31;;;;;;;12.47;8.23;;;;;;;-0.90;100.00;102561.97;5053721;28;20187;-71
2022/03/18 05:02:58;;;;;;;14.67;7.80;;;;;;;-0.84;100.00;102559.13;5053086;28;20199;-70
2022/03/18 05:05:25;;;;;;;10.43;5.63;;;;;;;-0.65;98.42;102584.06;5071599;28;20187;-70
2022/03/18 05:07:53;;;;;;;16.77;7.20;;;;;;;-0.71;95.71;102568.13;5055731;28;20199;-70
2022/03/18 05:10:22;;;;;;;12.47;7.03;;;;;;;-0.53;97.48;102587.78;5072269;28;20198;-70
2022/03/18 05:12:50;;;;;;;16.07;8.10;;;;;;;-0.57;96.81;102588.22;5073322;28;20260;-70
2022/03/18 05:15:16;;;;;;;14.87;8.77;;;;;;;-0.47;95.41;102600.25;5073447;28;20199;-70
2022/03/18 05:17:50;;;;;;;17.90;8.10;;;;;;;-0.35;92.76;102598.91;5060778;28;20199;-70
2022/03/18 05:20:16;;;;;;;15.17;8.17;;;;;;;-0.33;92.02;102599.97;5062640;28;20200;-71
2022/03/18 05:22:45;;;;;;;16.20;8.47;;;;;;;-0.25;88.77;102606.69;5047030;28;20203;-71
2022/03/18 05:25:12;;;;;;;15.67;7.53;;;;;;;-0.25;88.03;102613.47;5053211;28;20567;-70
2022/03/18 05:27:42;;;;;;;15.03;7.97;;;;;;;-0.39;87.71;102562.78;5068312;28;20635;-71
2022/03/18 05:30:11;;;;;;;23.20;7.93;;;;;;;-0.24;86.36;102599.94;5065244;28;20198;-71
2022/03/18 05:32:38;;;;;;;14.63;8.57;;;;;;;-0.14;85.27;102620.50;5052798;28;20192;-70
2022/03/18 05:35:06;;;;;;;5.20;4.70;;;;;;;-0.41;86.45;102570.28;5054558;28;20264;-73
2022/03/18 05:37:33;;;;;;;17.63;9.90;;;;;;;-0.10;85.56;102620.03;5067095;28;20650;-71
2022/03/18 05:39:59;;;;;;;20.23;8.57;;;;;;;-0.05;84.98;102626.50;5072074;28;20230;-70
2022/03/18 05:42:26;;;;;;;12.33;6.67;;;;;;;0.05;82.87;102628.28;5070576;28;20194;-71
2022/03/18 05:44:54;;;;;;;17.80;6.93;;;;;;;0.12;81.09;102631.59;5062541;28;20280;-70
2022/03/18 05:47:21;;;;;;;6.73;5.87;;;;;;;-0.11;76.71;102631.00;5059022;28;20239;-70
2022/03/18 05:49:48;;;;;;;10.20;4.97;;;;;;;-0.01;76.30;102638.81;5052308;28;20206;-71
2022/03/18 05:52:15;;;;;;;12.37;5.23;;;;;;;0.04;74.06;102635.03;5052319;28;20565;-70
2022/03/18 05:54:42;;;;;;;15.90;8.83;;;;;;;0.20;71.83;102638.34;5054414;28;20192;-70
2022/03/18 05:57:07;;;;;;;19.90;8.87;;;;;;;0.11;69.94;102642.53;5063457;28;20191;-70
2022/03/18 05:59:35;;;;;;;18.27;8.60;;;;;;;0.25;70.54;102647.31;5063106;28;20283;-70
2022/03/18 06:02:03;;;;;;;22.00;9.93;;;;;;;0.27;68.75;102650.94;5072012;28;20206;-71
2022/03/18 06:04:31;;;;;;;12.23;7.93;;;;;;;0.40;69.70;102647.91;5072126;28;20697;-71
2022/03/18 06:06:58;;;;;;;10.53;5.60;;;;;;;-0.03;68.98;102615.69;5058271;28;20195;-72
2022/03/18 06:12:10;;;;;;;19.97;8.70;;;;;;;0.49;68.47;102646.25;5052207;28;20302;-70
2022/03/18 06:14:37;;;;;;;21.73;9.70;;;;;;;0.61;67.04;102649.97;5069419;28;20198;-70
2022/03/18 06:17:06;;;;;;;11.80;7.30;;;;;;;0.64;66.96;102665.59;5057377;28;20670;-70
2022/03/18 06:19:33;;;;;;;11.47;7.80;;;;;;;0.66;66.00;102660.63;5051884;28;20223;-70
2022/03/18 06:22:00;;;;;;;16.87;9.27;;;;;;;0.66;66.63;102658.97;5056949;28;20201;-70
2022/03/18 06:24:28;;;;;;;16.43;7.97;;;;;;;0.84;66.40;102665.84;5071743;28;20198;-70
2022/03/18 06:26:55;;;;;;;14.87;8.10;;;;;;;0.86;66.09;102663.41;5059375;28;20200;-70
2022/03/18 06:29:22;;;;;;;15.73;9.17;;;;;;;0.87;65.49;102676.34;5051673;28;20187;-71
2022/03/18 06:31:50;;;;;;;17.57;8.27;;;;;;;0.86;66.61;102663.41;5057597;28;20651;-71
2022/03/18 06:34:20;;;;;;;6.50;4.07;;;;;;;0.58;66.47;102643.66;5070039;28;20194;-71
2022/03/18 06:36:48;;;;;;;14.77;7.57;;;;;;;0.90;66.62;102675.72;5071904;28;20195;-71
2022/03/18 06:39:15;;;;;;;14.13;7.53;;;;;;;1.05;67.87;102682.28;5071470;28;20231;-71
2022/03/18 06:41:42;;;;;;;5.93;4.37;;;;;;;0.93;66.45;102678.56;5071892;28;20203;-73
2022/03/18 06:44:09;;;;;;;6.83;5.03;;;;;;;0.78;66.32;102670.38;5071941;28;20634;-73
2022/03/18 06:46:37;;;;;;;7.33;5.00;;;;;;;0.72;67.44;102679.06;5070863;28;20239;-72
2022/03/18 06:49:04;;;;;;;14.17;7.30;;;;;;;1.00;68.61;102679.28;5071995;28;20230;-72
2022/03/18 06:51:33;;;;;;;15.10;8.30;;;;;;;0.72;68.10;102621.25;5071316;28;20282;-72
2022/03/18 06:54:01;;;;;;;10.10;7.13;;;;;;;1.02;68.34;102646.22;5071612;28;20304;-72
2022/03/18 06:56:30;;;;;;;10.17;6.30;;;;;;;0.91;69.23;102657.09;5071931;28;20206;-71
2022/03/18 06:58:56;;;;;;;3.60;3.37;;;;;;;0.87;69.35;102685.66;5071770;28;20260;-72
2022/03/18 07:01:23;;;;;;;7.23;4.13;;;;;;;0.87;69.67;102691.66;5071308;28;20201;-71
2022/03/18 07:03:50;;;;;;;10.80;6.63;;;;;;;1.02;68.67;102692.22;5071661;28;20203;-71
2022/03/18 07:06:17;;;;;;;7.27;3.60;;;;;;;0.89;67.38;102695.25;5071724;28;20260;-71
2022/03/18 07:08:46;;;;;;;9.20;6.17;;;;;;;1.13;67.20;102686.47;5071255;28;20252;-70
2022/03/18 07:11:13;;;;;;;10.00;6.67;;;;;;;1.22;67.21;102671.97;5071273;28;20664;-71
2022/03/18 07:13:41;;;;;;;9.77;6.17;;;;;;;1.33;65.90;102686.66;5071686;28;20302;-70
2022/03/18 07:18:52;;;;;;;7.90;5.00;;;;;;;1.21;64.41;102684.63;5071582;28;20229;-70
2022/03/18 07:21:19;;;;;;;11.50;6.70;;;;;;;1.38;63.98;102680.34;5071542;28;20272;-73
2022/03/18 07:23:48;;;;;;;11.87;7.17;;;;;;;1.68;62.61;102677.13;5071572;28;20205;-71
2022/03/18 07:26:14;;;;;;;11.80;6.80;;;;;;;1.74;63.29;102682.84;5071301;28;20609;-72
2022/03/18 07:28:41;;;;;;;12.17;6.07;;;;;;;1.71;61.21;102681.66;5071433;28;20637;-72
2022/03/18 07:31:08;;;;;;;9.77;5.57;;;;;;;1.79;60.01;102678.13;5071168;28;20205;-72
2022/03/18 07:33:35;;;;;;;10.53;6.63;;;;;;;1.86;60.11;102683.03;5071206;28;20191;-71
2022/03/18 07:36:04;;;;;;;15.20;7.70;;;;;;;2.05;59.39;102676.28;5071162;28;20202;-71
2022/03/18 07:38:31;;;;;;;10.50;5.63;;;;;;;2.19;58.84;102675.84;5071087;28;20195;-73
2022/03/18 07:40:59;;;;;;;7.00;5.47;;;;;;;2.13;57.26;102675.31;5071129;28;20669;-72
2022/03/18 07:43:25;;;;;;;11.37;4.70;;;;;;;2.00;56.16;102678.41;5071181;28;20195;-72
2022/03/18 07:45:52;;;;;;;5.70;3.00;;;;;;;1.96;55.72;102675.47;5070086;28;20274;-74
2022/03/18 07:48:20;;;;;;;12.43;6.90;;;;;;;2.26;55.88;102670.53;5071053;28;20202;-72
2022/03/18 07:50:47;;;;;;;11.77;6.20;;;;;;;2.23;54.44;102677.03;5071134;28;20260;-73
2022/03/18 07:53:14;;;;;;;4.80;4.40;;;;;;;2.32;54.50;102683.84;5070905;28;20672;-73
2022/03/18 07:55:41;;;;;;;5.80;4.60;;;;;;;2.17;54.27;102682.50;5071029;28;20195;-72
2022/03/18 07:58:09;;;;;;;5.67;4.73;;;;;;;2.41;55.42;102679.56;5074368;28;20275;-72
2022/03/18 08:00:36;;;;;;;6.40;3.63;;;;;;;2.22;53.69;102686.38;5074393;28;20712;-72
2022/03/18 08:03:04;;;;;;;11.60;5.17;;;;;;;2.05;53.59;102644.66;5074929;28;20199;-72
2022/03/18 08:05:31;;;;;;;5.00;4.00;;;;;;;2.32;54.33;102686.41;5074409;28;20231;-72
2022/03/18 08:07:58;;;;;;;11.00;5.33;;;;;;;2.26;53.77;102642.38;5074840;28;20195;-72
2022/03/18 08:10:25;;;;;;;4.87;3.43;;;;;;;2.46;52.86;102682.56;5074174;28;20191;-70
2022/03/18 08:12:52;;;;;;;6.03;3.93;;;;;;;2.66;53.38;102681.75;5074370;28;20203;-69
2022/03/18 08:15:21;;;;;;;10.50;6.20;;;;;;;2.97;53.39;102678.53;5074669;28;20195;-70
2022/03/18 08:17:52;;;;;;;11.23;4.53;;;;;;;2.68;52.86;102660.59;5073847;28;20237;-70
2022/03/18 08:20:19;;;;;;;9.03;5.93;;;;;;;2.94;51.82;102676.59;5074150;28;20681;-70
2022/03/18 08:22:46;;;;;;;8.80;4.60;;;;;;;2.80;51.94;102688.97;5074402;28;20194;-71
2022/03/18 08:25:13;;;;;;;8.03;5.13;;;;;;;2.68;52.95;102682.75;5074605;28;20588;-69
2022/03/18 08:27:40;;;;;;;7.60;5.27;;;;;;;3.00;55.98;102677.13;5074364;28;20198;-72
2022/03/18 08:30:08;;;;;;;11.17;5.47;;;;;;;2.91;53.08;102654.94;5074119;28;20738;-72
2022/03/18 08:32:36;;;;;;;9.90;5.37;;;;;;;2.82;52.67;102675.53;5074270;28;20269;-73
2022/03/18 08:35:04;;;;;;;5.90;3.77;;;;;;;2.93;52.42;102679.91;5074026;28;20680;-73
2022/03/18 08:40:16;;;;;;;6.87;5.07;;;;;;;3.06;52.63;102676.78;5074136;28;20280;-73
2022/03/18 08:42:42;;;;;;;6.77;4.70;;;;;;;3.18;52.18;102680.38;5073901;28;20197;-74
2022/03/18 08:45:10;;;;;;;11.27;6.33;;;;;;;3.40;51.89;102672.84;5073961;28;20187;-73
2022/03/18 08:47:38;;;;;;;7.37;4.80;;;;;;;3.51;52.69;102664.41;5072907;28;20602;-73
2022/03/18 08:50:06;;;;;;;8.93;4.13;;;;;;;3.17;50.45;102632.47;5074084;28;20195;-73
2022/03/18 08:52:33;;;;;;;3.87;3.47;;;;;;;3.38;49.25;102667.59;5073551;28;20655;-74
2022/03/18 08:55:00;;;;;;;5.90;4.93;;;;;;;3.51;50.17;102669.53;5073687;28;20195;-73
2022/03/18 08:57:28;;;;;;;8.80;4.97;;;;;;;3.38;49.14;102677.88;5073433;28;20639;-73
2022/03/18 08:59:55;;;;;;;9.43;3.90;;;;;;;3.24;51.61;102665.53;5073643;28;20235;-71
2022/03/18 09:02:22;;;;;;;11.53;6.57;;;;;;;3.41;51.34;102669.53;5073709;28;20285;-73
2022/03/18 09:04:52;;;;;;;5.80;4.60;;;;;;;3.50;51.04;102645.53;5073407;28;20661;-73
2022/03/18 09:07:19;;;;;;;8.33;5.90;;;;;;;3.61;50.24;102666.06;5073320;28;20195;-71
2022/03/18 09:09:46;;;;;;;6.20;4.27;;;;;;;3.46;51.40;102676.81;5073308;28;20198;-74
2022/03/18 09:12:13;;;;;;;9.07;6.50;;;;;;;3.54;52.18;102674.00;5073249;28;20190;-73
2022/03/18 09:14:40;;;;;;;4.53;3.70;;;;;;;3.63;50.28;102674.81;5073475;28;20195;-73
2022/03/18 09:17:07;;;;;;;8.30;3.80;;;;;;;3.60;48.37;102679.69;5072629;28;20195;-73
2022/03/18 09:19:37;;;;;;;8.07;5.00;;;;;;;3.62;47.80;102683.25;5073221;28;20639;-74
2022/03/18 09:22:06;;;;;;;3.57;2.83;;;;;;;3.67;47.87;102682.00;5072924;28;20286;-70
2022/03/18 09:24:34;;;;;;;4.40;4.00;;;;;;;4.02;49.55;102682.34;5073079;28;20744;-72
2022/03/18 09:27:01;;;;;;;6.93;3.83;;;;;;;3.79;47.60;102673.63;5073315;28;20197;-71
2022/03/18 09:29:28;;;;;;;8.53;5.27;;;;;;;3.78;47.28;102681.22;5072712;28;20267;-72
2022/03/18 09:31:55;;;;;;;7.77;3.70;;;;;;;3.61;48.02;102648.09;5073331;28;20198;-72
2022/03/18 09:34:24;;;;;;;3.77;2.40;;;;;;;3.66;47.46;102659.66;5073142;28;20195;-72
2022/03/18 09:36:53;;;;;;;7.20;4.13;;;;;;;4.07;48.17;102674.25;5072792;28;20582;-72
2022/03/18 09:39:22;;;;;;;6.17;4.50;;;;;;;4.01;47.97;102676.31;5073035;28;20226;-71
2022/03/18 09:41:49;;;;;;;6.53;3.47;;;;;;;4.04;47.12;102675.66;5072607;28;20688;-74
2022/03/18 09:44:16;;;;;;;4.23;3.53;;;;;;;4.11;46.09;102662.56;5072594;28;20194;-72
2022/03/18 09:46:47;;;;;;;9.67;3.90;;;;;;;3.94;47.64;102685.19;5071619;28;20227;-72
2022/03/18 09:49:14;;;;;;;3.50;3.13;;;;;;;4.07;47.07;102681.06;5073038;28;20208;-73
2022/03/18 09:51:42;;;;;;;7.53;4.37;;;;;;;4.23;45.75;102664.47;5072661;28;20561;-73
2022/03/18 09:54:10;;;;;;;18.47;5.23;;;;;;;4.21;45.97;102671.13;5072511;28;20199;-73
2022/03/18 09:56:41;;;;;;;2.43;2.20;;;;;;;4.07;45.92;102674.25;5072621;28;20190;-72
2022/03/18 09:59:07;;;;;;;7.20;5.13;;;;;;;4.16;45.94;102677.59;5072240;28;20248;-72
2022/03/18 10:01:34;;;;;;;3.40;3.10;;;;;;;4.24;46.75;102663.72;5072561;28;20223;-73
2022/03/18 10:04:03;;;;;;;5.50;4.57;;;;;;;4.26;47.41;102672.41;5072384;28;20207;-72
2022/03/18 10:06:31;;;;;;;5.77;4.40;;;;;;;4.31;45.35;102673.72;5072382;28;20219;-71
2022/03/18 10:08:59;;;;;;;4.37;3.60;;;;;;;4.17;45.94;102663.97;5072590;28;20639;-72
2022/03/18 10:11:28;;;;;;;3.37;2.93;;;;;;;4.16;45.46;102682.72;5072336;28;20216;-72
2022/03/18 10:13:59;;;;;;;5.33;3.43;;;;;;;4.26;45.85;102680.13;5072170;28;20199;-73
2022/03/18 10:16:36;;;;;;;6.23;4.07;;;;;;;3.89;47.05;102624.84;5071032;28;20195;-71
2022/03/18 10:19:06;;;;;;;9.47;5.07;;;;;;;4.28;46.80;102673.44;5071212;28;20202;-71
2022/03/18 10:21:33;;;;;;;5.63;4.67;;;;;;;4.31;46.68;102632.63;5072012;28;20227;-73
2022/03/18 10:24:08;;;;;;;4.23;3.83;;;;;;;4.52;46.66;102678.78;5071920;28;20202;-74
2022/03/18 10:26:38;;;;;;;8.30;3.97;;;;;;;4.50;47.53;102676.97;5072096;28;20198;-72
2022/03/18 10:29:11;;;;;;;5.73;3.80;;;;;;;4.53;46.66;102671.16;5072100;28;20203;-73
2022/03/18 10:31:39;;;;;;;9.07;5.43;;;;;;;4.52;46.34;102655.66;5071640;28;20730;-72
2022/03/18 10:37:07;;;;;;;12.63;4.90;;;;;;;4.90;46.32;102664.72;5071932;28;20201;-74
2022/03/18 10:39:36;;;;;;;9.77;6.10;;;;;;;4.98;46.53;102658.53;5071392;28;20194;-72
2022/03/18 10:42:09;;;;;;;4.60;3.23;;;;;;;4.81;45.89;102635.75;5071956;28;20198;-72
2022/03/18 10:44:49;;;;;;;4.43;3.50;;;;;;;4.75;46.17;102654.13;5071784;28;20197;-74
2022/03/18 10:47:35;;;;;;;7.70;5.90;;;;;;;4.96;45.39;102645.53;5070448;28;20238;-72
2022/03/18 10:50:15;;;;;;;5.40;3.70;;;;;;;4.86;45.64;102649.84;5071621;28;20207;-75
2022/03/18 10:53:01;;;;;;;9.07;5.27;;;;;;;4.97;51.26;102641.31;5071551;28;20198;-73
2022/03/18 10:55:30;;;;;;;7.30;5.13;;;;;;;5.05;46.65;102634.19;5071532;28;20685;-73
2022/03/18 10:57:59;;;;;;;8.17;6.00;;;;;;;4.96;46.41;102642.06;5071730;28;20198;-73
2022/03/18 11:00:29;;;;;;;6.43;4.93;;;;;;;5.07;46.44;102633.53;5071481;28;20272;-74
2022/03/18 11:02:58;;;;;;;4.17;3.77;;;;;;;5.21;45.72;102638.06;5071483;28;20641;-74
2022/03/18 11:05:26;;;;;;;8.13;5.13;;;;;;;5.21;46.66;102643.19;5071566;28;20290;-73
2022/03/18 11:07:55;;;;;;;9.77;5.67;;;;;;;5.01;45.70;102609.91;5070892;28;20207;-72
2022/03/18 11:13:09;;;;;;;8.20;4.93;;;;;;;5.77;45.53;102628.63;5071484;28;20630;-72
2022/03/18 11:15:39;;;;;;;5.50;4.47;;;;;;;5.63;43.79;102624.13;5064730;28;20190;-74
2022/03/18 11:18:07;;;;;;;7.47;5.13;;;;;;;5.37;43.51;102593.84;5050253;28;20191;-75
2022/03/18 11:20:42;;;;;;;4.33;3.70;;;;;;;5.31;43.45;102625.16;5050363;28;20375;-71
2022/03/18 11:23:17;;;;;;;4.20;3.77;;;;;;;5.14;42.53;102594.63;5050760;28;20198;-77
2022/03/18 11:25:46;;;;;;;5.27;4.10;;;;;;;5.46;43.17;102605.72;5049335;28;20288;-75
2022/03/18 11:28:16;;;;;;;9.93;5.57;;;;;;;5.65;44.05;102612.25;5051459;28;20231;-77
2022/03/18 11:30:47;;;;;;;8.70;4.80;;;;;;;5.56;42.42;102611.56;5052070;28;20231;-73
2022/03/18 11:33:21;;;;;;;9.73;5.00;;;;;;;5.54;43.60;102613.13;5055087;28;20227;-77
2022/03/18 11:36:21;;;;;;;9.27;4.57;;;;;;;5.10;44.63;102556.59;5055166;28;20455;-77
2022/03/18 11:39:02;;;;;;;8.03;5.77;;;;;;;5.63;43.38;102609.56;5055236;28;20196;-72
2022/03/18 11:41:53;;;;;;;9.37;6.07;;;;;;;5.95;43.57;102609.44;5056436;28;20736;-74
2022/03/18 11:44:58;;;;;;;8.13;5.27;;;;;;;5.93;41.89;102608.41;5054949;28;20199;-77
2022/03/18 11:47:40;;;;;;;9.03;6.13;;;;;;;6.39;41.82;102599.75;5053957;28;20238;-77
2022/03/18 11:50:38;;;;;;;11.07;4.97;;;;;;;6.66;40.94;102600.84;5055159;28;20204;-75